createdAt,value
2018-02-12T00:01:53.985Z,16.40
2018-02-12T00:04:21.146Z,17.63
2018-02-12T00:06:47.746Z,19.27
2018-02-12T00:09:14.104Z,20.20
2018-02-12T00:11:40.713Z,20.10
2018-02-12T00:14:07.249Z,17.20
2018-02-12T00:16:33.614Z,16.87
2018-02-12T00:18:59.987Z,15.40
2018-02-12T00:21:26.353Z,15.40
2018-02-12T00:23:52.722Z,14.30
2018-02-12T00:26:19.091Z,14.90
2018-02-12T00:28:45.448Z,13.90
2018-02-12T00:31:11.807Z,14.73
2018-02-12T00:33:38.916Z,14.93
2018-02-12T00:36:05.290Z,16.23
2018-02-12T00:38:31.670Z,15.00
2018-02-12T00:40:58.046Z,13.97
2018-02-12T00:43:24.409Z,13.40
2018-02-12T00:45:51.519Z,12.53
2018-02-12T00:48:17.896Z,11.83
2018-02-12T00:50:44.256Z,12.47
2018-02-12T00:53:10.607Z,12.53
2018-02-12T00:55:37.041Z,12.63
2018-02-12T00:58:03.421Z,12.50
2018-02-12T01:00:30.517Z,12.77
2018-02-12T01:02:56.897Z,13.40
2018-02-12T01:05:24.015Z,15.50
2018-02-12T01:07:50.435Z,14.57
2018-02-12T01:10:16.804Z,13.77
2018-02-12T01:12:43.175Z,12.87
2018-02-12T01:15:09.625Z,12.40
2018-02-12T01:17:35.995Z,11.37
2018-02-12T01:20:03.097Z,11.17
2018-02-12T01:22:29.457Z,11.40
2018-02-12T01:24:55.815Z,11.80
2018-02-12T01:27:23.066Z,12.17
2018-02-12T01:29:49.451Z,10.70
2018-02-12T01:32:15.861Z,11.33
2018-02-12T01:34:42.247Z,11.03
2018-02-12T01:37:08.587Z,11.63
2018-02-12T01:39:35.677Z,10.47
2018-02-12T01:42:02.023Z,10.90
2018-02-12T01:44:28.378Z,10.63
2018-02-12T01:46:54.766Z,9.87
2018-02-12T01:49:21.121Z,10.27
2018-02-12T01:51:47.467Z,9.47
2018-02-12T01:54:13.816Z,8.63
2018-02-12T01:56:40.921Z,9.47
2018-02-12T01:59:07.294Z,8.87
2018-02-12T02:01:34.429Z,8.20
2018-02-12T02:04:00.799Z,9.13
2018-02-12T02:06:27.166Z,9.73
2018-02-12T02:08:53.598Z,9.17
2018-02-12T02:11:19.968Z,9.27
2018-02-12T02:13:47.082Z,8.27
2018-02-12T02:16:13.433Z,9.00
2018-02-12T02:18:39.790Z,8.90
2018-02-12T02:21:06.957Z,8.30
2018-02-12T02:23:33.317Z,9.03
2018-02-12T02:25:59.674Z,8.30
2018-02-12T02:28:26.076Z,9.30
2018-02-12T02:30:52.445Z,9.30
2018-02-12T02:33:18.807Z,8.70
2018-02-12T02:35:48.023Z,8.37
2018-02-12T02:38:14.378Z,8.13
2018-02-12T02:40:40.742Z,8.73
2018-02-12T02:43:07.107Z,7.60
2018-02-12T02:45:33.474Z,8.83
2018-02-12T02:47:59.831Z,8.27
2018-02-12T02:50:27.694Z,8.43
2018-02-12T02:52:54.059Z,7.50
2018-02-12T02:55:21.158Z,8.50
2018-02-12T02:57:47.527Z,8.03
2018-02-12T03:00:14.670Z,8.90
2018-02-12T03:02:41.789Z,7.83
2018-02-12T03:05:08.139Z,8.40
2018-02-12T03:07:34.497Z,8.67
2018-02-12T03:10:01.599Z,7.80
2018-02-12T03:12:27.981Z,7.83
2018-02-12T03:14:54.352Z,9.57
2018-02-12T03:17:20.733Z,8.30
2018-02-12T03:19:47.834Z,8.27
2018-02-12T03:22:14.198Z,8.57
2018-02-12T03:24:41.311Z,7.77
2018-02-12T03:27:07.804Z,7.90
2018-02-12T03:29:34.162Z,7.93
2018-02-12T03:32:00.669Z,8.00
2018-02-12T03:34:27.034Z,6.73
2018-02-12T03:36:53.405Z,8.17
2018-02-12T03:39:19.773Z,8.40
2018-02-12T03:41:46.126Z,7.50
2018-02-12T03:44:12.469Z,7.73
2018-02-12T03:46:38.890Z,7.80
2018-02-12T03:49:05.235Z,7.20
2018-02-12T03:51:31.602Z,8.47
2018-02-12T03:53:58.702Z,7.73
2018-02-12T03:56:25.050Z,7.13
2018-02-12T03:58:51.419Z,6.97
2018-02-12T04:01:18.608Z,6.47
2018-02-12T04:03:44.982Z,7.30
2018-02-12T04:06:11.330Z,6.70
2018-02-12T04:08:38.426Z,7.57
2018-02-12T04:11:04.816Z,8.53
2018-02-12T04:13:31.924Z,7.23
2018-02-12T04:15:58.293Z,8.90
2018-02-12T04:18:25.391Z,7.90
2018-02-12T04:20:51.751Z,7.30
2018-02-12T04:23:18.116Z,7.90
2018-02-12T04:25:45.221Z,7.13
2018-02-12T04:28:11.561Z,7.40
2018-02-12T04:30:37.928Z,7.30
2018-02-12T04:33:04.318Z,7.07
2018-02-12T04:35:30.783Z,7.03
2018-02-12T04:37:57.230Z,7.40
2018-02-12T04:40:23.589Z,7.57
2018-02-12T04:42:50.051Z,8.10
2018-02-12T04:45:16.403Z,7.40
2018-02-12T04:47:43.503Z,7.60
2018-02-12T04:50:09.871Z,7.83
2018-02-12T04:52:36.229Z,9.10
2018-02-12T04:55:03.346Z,18.37
2018-02-12T04:57:29.701Z,11.43
2018-02-12T04:59:56.803Z,12.43
2018-02-12T05:02:23.182Z,18.97
2018-02-12T05:04:50.282Z,21.73
2018-02-12T05:07:16.633Z,18.00
2018-02-12T05:09:43.086Z,14.67
2018-02-12T05:12:11.203Z,10.90
2018-02-12T05:14:37.645Z,10.53
2018-02-12T05:17:04.002Z,9.60
2018-02-12T05:19:30.370Z,10.53
2018-02-12T05:21:57.473Z,10.30
2018-02-12T05:24:23.850Z,11.90
2018-02-12T05:26:50.938Z,11.57
2018-02-12T05:29:17.298Z,14.00
2018-02-12T05:31:43.658Z,12.23
2018-02-12T05:34:10.051Z,12.70
2018-02-12T05:36:36.429Z,11.43
2018-02-12T05:39:02.878Z,11.33
2018-02-12T05:41:29.387Z,10.20
2018-02-12T05:43:55.752Z,10.33
2018-02-12T05:46:22.123Z,10.53
2018-02-12T05:48:48.490Z,12.07
2018-02-12T05:51:14.868Z,9.53
2018-02-12T05:53:41.227Z,9.87
2018-02-12T05:56:07.599Z,8.90
2018-02-12T05:58:33.979Z,10.57
2018-02-12T06:01:00.370Z,10.40
2018-02-12T06:03:26.783Z,10.43
2018-02-12T06:05:53.143Z,11.50
2018-02-12T06:08:19.539Z,17.40
2018-02-12T06:10:46.079Z,17.43
2018-02-12T06:13:12.444Z,9.87
2018-02-12T06:15:38.801Z,10.40
2018-02-12T06:18:05.219Z,10.63
2018-02-12T06:20:31.617Z,10.50
2018-02-12T06:22:57.980Z,10.23
2018-02-12T06:25:24.335Z,9.23
2018-02-12T06:27:50.726Z,9.70
2018-02-12T06:30:17.089Z,10.83
2018-02-12T06:32:44.184Z,12.17
2018-02-12T06:35:10.536Z,10.87
2018-02-12T06:37:36.915Z,9.30
2018-02-12T06:40:04.022Z,10.17
2018-02-12T06:42:30.431Z,9.90
2018-02-12T06:44:56.795Z,11.57
2018-02-12T06:47:23.140Z,17.70
2018-02-12T06:49:49.497Z,18.73
2018-02-12T06:52:16.587Z,10.50
2018-02-12T06:54:42.944Z,12.60
2018-02-12T06:57:09.375Z,12.47
2018-02-12T06:59:35.755Z,10.53
2018-02-12T07:02:02.906Z,12.93
2018-02-12T07:04:29.272Z,14.00
2018-02-12T07:06:55.642Z,16.83
2018-02-12T07:09:22.002Z,16.57
2018-02-12T07:11:48.392Z,14.90
2018-02-12T07:14:14.765Z,14.90
2018-02-12T07:16:41.120Z,15.20
2018-02-12T07:19:07.500Z,11.90
2018-02-12T07:21:34.610Z,12.73
2018-02-12T07:24:00.981Z,20.57
2018-02-12T07:26:27.341Z,15.23
2018-02-12T07:28:53.714Z,13.67
2018-02-12T07:31:20.133Z,13.17
2018-02-12T07:33:46.506Z,11.80
2018-02-12T07:36:12.871Z,14.27
2018-02-12T07:38:39.240Z,14.20
2018-02-12T07:41:05.621Z,14.50
2018-02-12T07:43:32.777Z,14.60
2018-02-12T07:45:59.144Z,13.70
2018-02-12T07:48:25.508Z,14.03
2018-02-12T07:50:51.879Z,14.33
2018-02-12T07:53:18.246Z,13.80
2018-02-12T07:55:44.609Z,28.30
2018-02-12T07:58:11.761Z,22.20
2018-02-12T08:00:38.857Z,17.63
2018-02-12T08:03:05.270Z,18.97
2018-02-12T08:05:31.656Z,18.83
2018-02-12T08:07:58.028Z,21.10
2018-02-12T08:10:24.386Z,60.07
2018-02-12T08:12:50.779Z,53.77
2018-02-12T08:15:17.890Z,40.00
2018-02-12T08:17:44.242Z,35.80
2018-02-12T08:20:10.641Z,28.80
2018-02-12T08:22:37.072Z,18.97
2018-02-12T08:25:03.434Z,16.13
2018-02-12T08:27:29.797Z,16.00
2018-02-12T08:29:56.909Z,15.73
2018-02-12T08:32:23.278Z,13.47
2018-02-12T08:34:49.639Z,12.30
2018-02-12T08:37:16.003Z,19.57
2018-02-12T08:39:42.377Z,16.83
2018-02-12T08:42:08.807Z,13.70
2018-02-12T08:44:35.174Z,12.97
2018-02-12T08:47:01.532Z,13.60
2018-02-12T08:49:27.930Z,13.03
2018-02-12T08:51:54.354Z,12.73
2018-02-12T08:54:20.727Z,14.30
2018-02-12T08:56:47.097Z,16.47
2018-02-12T08:59:13.459Z,15.10
2018-02-12T09:01:39.818Z,25.00
2018-02-12T09:04:06.187Z,20.20
2018-02-12T09:06:32.542Z,19.53
2018-02-12T09:08:58.968Z,12.40
2018-02-12T09:11:25.357Z,11.87
2018-02-12T09:13:52.484Z,13.53
2018-02-12T09:16:18.862Z,13.77
2018-02-12T09:18:45.246Z,15.00
2018-02-12T09:21:11.602Z,15.70
2018-02-12T09:23:38.729Z,15.03
2018-02-12T09:26:05.100Z,13.47
2018-02-12T09:28:32.742Z,13.60
2018-02-12T09:31:00.703Z,12.03
2018-02-12T09:33:27.067Z,11.73
2018-02-12T09:35:53.462Z,11.30
2018-02-12T09:38:19.810Z,11.90
2018-02-12T09:40:46.915Z,12.27
2018-02-12T09:43:13.351Z,12.10
2018-02-12T09:45:39.785Z,11.10
2018-02-12T09:48:06.288Z,11.33
2018-02-12T09:50:32.927Z,17.00
2018-02-12T09:52:59.406Z,11.97
2018-02-12T09:55:26.205Z,9.70
2018-02-12T09:57:53.622Z,10.83
2018-02-12T10:00:20.794Z,10.50
2018-02-12T10:02:47.224Z,10.07
2018-02-12T10:05:13.684Z,12.20
2018-02-12T10:07:40.090Z,10.60
2018-02-12T10:10:06.598Z,11.23
2018-02-12T10:12:33.774Z,12.00
2018-02-12T10:15:01.027Z,10.83
2018-02-12T10:17:28.321Z,11.50
2018-02-12T10:19:54.733Z,12.20
2018-02-12T10:22:21.124Z,21.70
2018-02-12T10:24:48.313Z,10.77
2018-02-12T10:27:14.744Z,11.57
2018-02-12T10:29:41.138Z,10.00
2018-02-12T10:32:07.540Z,13.00
2018-02-12T10:34:33.943Z,12.80
2018-02-12T10:37:00.385Z,19.47
2018-02-12T10:39:26.807Z,14.13
2018-02-12T10:41:53.236Z,12.17
2018-02-12T10:44:19.673Z,11.27
2018-02-12T10:46:46.101Z,11.20
2018-02-12T10:49:12.600Z,11.17
2018-02-12T10:51:40.773Z,11.17
2018-02-12T10:54:07.943Z,11.30
2018-02-12T10:56:35.111Z,8.70
2018-02-12T10:59:01.511Z,6.60
2018-02-12T11:01:29.163Z,6.40
2018-02-12T11:03:55.650Z,7.73
2018-02-12T11:06:22.060Z,5.30
2018-02-12T11:08:48.484Z,6.97
2018-02-12T11:11:15.783Z,5.00
2018-02-12T11:13:42.325Z,6.17
2018-02-12T11:16:08.762Z,5.07
2018-02-12T11:18:35.223Z,8.13
2018-02-12T11:21:01.636Z,9.87
2018-02-12T11:23:28.045Z,8.60
2018-02-12T11:25:54.458Z,11.70
2018-02-12T11:28:20.863Z,4.50
2018-02-12T11:30:48.037Z,5.50
2018-02-12T11:33:14.465Z,3.60
2018-02-12T11:35:40.822Z,3.20
2018-02-12T11:38:07.186Z,3.07
2018-02-12T11:40:33.550Z,3.10
2018-02-12T11:43:00.660Z,3.10
2018-02-12T11:45:27.006Z,2.20
2018-02-12T11:47:53.358Z,2.53
2018-02-12T11:50:20.450Z,3.03
2018-02-12T11:52:46.859Z,3.37
2018-02-12T11:55:13.219Z,3.20
2018-02-12T11:57:39.582Z,3.97
2018-02-12T12:00:06.013Z,2.90
2018-02-12T12:02:33.225Z,3.40
2018-02-12T12:04:59.629Z,3.50
2018-02-12T12:07:25.995Z,4.37
2018-02-12T12:09:52.344Z,2.63
2018-02-12T12:12:18.728Z,3.37
2018-02-12T12:14:45.086Z,3.73
2018-02-12T12:17:11.514Z,4.53
2018-02-12T12:19:37.925Z,3.23
2018-02-12T12:22:04.325Z,3.00
2018-02-12T12:24:30.811Z,3.37
2018-02-12T12:26:57.186Z,3.20
2018-02-12T12:29:23.570Z,3.53
2018-02-12T12:31:49.933Z,3.20
2018-02-12T12:34:16.312Z,3.77
2018-02-12T12:36:43.413Z,3.10
2018-02-12T12:39:09.796Z,3.47
2018-02-12T12:41:36.168Z,3.10
2018-02-12T12:44:02.522Z,3.33
2018-02-12T12:46:29.638Z,3.20
2018-02-12T12:48:56.036Z,2.73
2018-02-12T12:51:22.397Z,2.90
2018-02-12T12:53:48.778Z,2.83
2018-02-12T12:56:15.899Z,3.27
2018-02-12T12:58:42.255Z,3.40
2018-02-12T13:01:09.352Z,4.80
2018-02-12T13:03:35.715Z,3.93
2018-02-12T13:06:02.106Z,3.27
2018-02-12T13:08:28.459Z,2.70
2018-02-12T13:10:54.826Z,3.27
2018-02-12T13:13:21.202Z,3.03
2018-02-12T13:15:47.567Z,4.77
2018-02-12T13:18:13.948Z,3.33
2018-02-12T13:20:41.055Z,3.27
2018-02-12T13:23:07.420Z,3.23
2018-02-12T13:25:34.606Z,3.20
2018-02-12T13:28:01.102Z,2.80
2018-02-12T13:30:27.485Z,3.17
2018-02-12T13:32:53.842Z,3.50
2018-02-12T13:35:20.206Z,4.30
2018-02-12T13:37:47.323Z,4.37
2018-02-12T13:40:15.175Z,3.90
2018-02-12T13:42:41.535Z,3.57
2018-02-12T13:45:09.366Z,5.10
2018-02-12T13:47:35.743Z,4.10
2018-02-12T13:50:02.873Z,3.60
2018-02-12T13:52:29.969Z,4.10
2018-02-12T13:54:56.349Z,3.57
2018-02-12T13:57:24.195Z,3.10
2018-02-12T13:59:50.579Z,3.23
2018-02-12T14:02:17.718Z,3.83
2018-02-12T14:04:44.821Z,3.90
2018-02-12T14:07:11.187Z,3.07
2018-02-12T14:09:38.355Z,4.50
2018-02-12T14:12:05.459Z,3.77
2018-02-12T14:14:34.503Z,4.30
2018-02-12T14:17:00.869Z,4.17
2018-02-12T14:19:27.303Z,3.27
2018-02-12T14:21:53.670Z,4.83
2018-02-12T14:24:20.765Z,3.80
2018-02-12T14:26:48.070Z,4.20
2018-02-12T14:29:14.437Z,3.90
2018-02-12T14:31:40.799Z,4.07
2018-02-12T14:34:07.242Z,3.30
2018-02-12T14:36:33.606Z,3.70
2018-02-12T14:39:00.738Z,2.90
2018-02-12T14:41:27.150Z,3.57
2018-02-12T14:43:53.504Z,2.97
2018-02-12T14:46:19.878Z,3.47
2018-02-12T14:48:46.304Z,2.87
2018-02-12T14:51:12.657Z,3.37
2018-02-12T14:53:39.012Z,3.40
2018-02-12T14:56:05.377Z,3.90
2018-02-12T14:58:32.496Z,5.93
2018-02-12T15:00:58.851Z,3.50
2018-02-12T15:03:25.974Z,3.37
2018-02-12T15:05:52.330Z,2.90
2018-02-12T15:08:19.470Z,3.13
2018-02-12T15:10:45.834Z,2.93
2018-02-12T15:13:12.958Z,3.97
2018-02-12T15:15:39.330Z,3.73
2018-02-12T15:18:05.695Z,5.13
2018-02-12T15:20:32.061Z,2.47
2018-02-12T15:22:59.270Z,2.67
2018-02-12T15:25:25.661Z,2.60
2018-02-12T15:27:52.042Z,2.20
2018-02-12T15:30:31.716Z,1.93
2018-02-12T15:32:58.838Z,2.53
2018-02-12T15:35:25.208Z,5.53
2018-02-12T15:37:52.389Z,3.60
2018-02-12T15:40:18.766Z,2.50
2018-02-12T15:42:45.870Z,2.40
2018-02-12T15:45:12.248Z,2.13
2018-02-12T15:47:40.091Z,2.10
2018-02-12T15:50:06.542Z,2.30
2018-02-12T15:52:32.904Z,1.90
2018-02-12T15:55:00.042Z,2.17
2018-02-12T15:57:27.173Z,1.87
2018-02-12T15:59:53.580Z,2.07
2018-02-12T16:02:19.968Z,1.90
2018-02-12T16:04:47.085Z,1.73
2018-02-12T16:07:13.472Z,2.00
2018-02-12T16:09:39.849Z,1.73
2018-02-12T16:12:06.279Z,1.53
2018-02-12T16:14:32.655Z,1.90
2018-02-12T16:16:59.102Z,2.03
2018-02-12T16:19:25.495Z,2.97
2018-02-12T16:21:52.602Z,3.20
2018-02-12T16:24:19.004Z,2.50
2018-02-12T16:26:45.351Z,2.47
2018-02-12T16:29:11.711Z,2.63
2018-02-12T16:31:38.087Z,3.60
2018-02-12T16:34:04.517Z,2.90
2018-02-12T16:36:30.928Z,3.40
2018-02-12T16:38:58.067Z,3.27
2018-02-12T16:41:25.187Z,2.60
2018-02-12T16:43:51.556Z,2.40
2018-02-12T16:46:17.911Z,2.70
2018-02-12T16:48:45.010Z,2.70
2018-02-12T16:51:11.400Z,3.63
2018-02-12T16:53:37.806Z,4.20
2018-02-12T16:56:04.240Z,2.47
2018-02-12T16:58:31.366Z,3.00
2018-02-12T17:00:57.742Z,2.90
2018-02-12T17:03:24.834Z,4.23
2018-02-12T17:05:51.198Z,3.10
2018-02-12T17:08:18.353Z,2.60
2018-02-12T17:10:44.688Z,2.80
2018-02-12T17:13:11.805Z,2.70
2018-02-12T17:15:38.182Z,2.30
2018-02-12T17:18:04.548Z,3.43
2018-02-12T17:20:30.919Z,4.00
2018-02-12T17:22:58.024Z,2.40
2018-02-12T17:25:24.399Z,3.37
2018-02-12T17:27:50.765Z,4.07
2018-02-12T17:30:17.130Z,3.37
2018-02-12T17:32:44.402Z,3.77
2018-02-12T17:35:10.768Z,3.00
2018-02-12T17:37:37.866Z,3.47
2018-02-12T17:40:04.311Z,4.70
2018-02-12T17:42:31.617Z,3.90
2018-02-12T17:44:58.018Z,4.57
2018-02-12T17:47:25.137Z,5.10
2018-02-12T17:49:51.509Z,4.07
2018-02-12T17:52:18.657Z,4.83
2018-02-12T17:54:45.761Z,3.87
2018-02-12T17:57:12.149Z,3.10
2018-02-12T17:59:38.683Z,3.40
2018-02-12T18:02:05.069Z,4.27
2018-02-12T18:04:31.436Z,4.20
2018-02-12T18:06:58.546Z,3.50
2018-02-12T18:09:24.912Z,3.07
2018-02-12T18:11:51.303Z,3.30
2018-02-12T18:14:17.695Z,3.47
2018-02-12T18:16:44.090Z,3.87
2018-02-12T18:19:11.921Z,5.80
2018-02-12T18:21:38.274Z,4.90
2018-02-12T18:24:04.637Z,5.37
2018-02-12T18:26:31.082Z,10.30
2018-02-12T18:28:57.454Z,18.80
2018-02-12T18:31:23.824Z,6.27
2018-02-12T18:33:50.943Z,14.57
2018-02-12T18:36:17.332Z,8.50
2018-02-12T18:38:43.807Z,4.37
2018-02-12T18:41:10.204Z,3.57
2018-02-12T18:43:36.631Z,3.73
2018-02-12T18:46:03.061Z,3.37
2018-02-12T18:48:29.488Z,5.50
2018-02-12T18:50:55.865Z,6.70
2018-02-12T18:53:23.076Z,4.43
2018-02-12T18:55:49.458Z,3.70
2018-02-12T18:58:15.837Z,4.40
2018-02-12T19:00:42.225Z,3.23
2018-02-12T19:03:10.140Z,4.10
2018-02-12T19:05:36.513Z,3.87
2018-02-12T19:08:02.908Z,3.97
2018-02-12T19:10:29.265Z,3.70
2018-02-12T19:12:55.628Z,3.00
2018-02-12T19:15:21.994Z,3.57
2018-02-12T19:17:48.376Z,3.47
2018-02-12T19:20:14.736Z,4.10
2018-02-12T19:22:41.849Z,3.20
2018-02-12T19:25:08.235Z,3.47
2018-02-12T19:27:35.336Z,2.87
2018-02-12T19:30:01.701Z,3.40
2018-02-12T19:32:28.815Z,4.40
2018-02-12T19:34:56.213Z,4.33
2018-02-12T19:37:23.325Z,3.70
2018-02-12T19:39:49.702Z,3.60
2018-02-12T19:42:16.916Z,3.90
2018-02-12T19:44:43.276Z,4.20
2018-02-12T19:47:10.390Z,3.73
2018-02-12T19:49:38.386Z,3.20
2018-02-12T19:52:05.532Z,3.40
2018-02-12T19:54:32.623Z,4.03
2018-02-12T19:56:58.979Z,3.87
2018-02-12T19:59:25.723Z,4.27
2018-02-12T20:01:52.078Z,3.20
2018-02-12T20:04:19.254Z,3.50
2018-02-12T20:06:45.619Z,4.47
2018-02-12T20:09:12.034Z,4.00
2018-02-12T20:11:38.410Z,5.63
2018-02-12T20:14:04.774Z,5.57
2018-02-12T20:16:31.953Z,5.90
2018-02-12T20:18:58.319Z,6.30
2018-02-12T20:21:24.694Z,5.60
2018-02-12T20:23:51.067Z,5.47
2018-02-12T20:26:17.457Z,5.23
2018-02-12T20:28:43.833Z,5.10
2018-02-12T20:31:10.197Z,5.10
2018-02-12T20:33:37.304Z,4.53
2018-02-12T20:36:03.671Z,5.60
2018-02-12T20:38:30.017Z,5.77
2018-02-12T20:40:57.108Z,6.00
2018-02-12T20:43:23.475Z,6.13
2018-02-12T20:45:50.590Z,6.90
2018-02-12T20:48:16.981Z,6.53
2018-02-12T20:50:43.399Z,6.87
2018-02-12T20:53:09.875Z,7.47
2018-02-12T20:55:36.252Z,5.47
2018-02-12T20:58:02.639Z,6.17
2018-02-12T21:00:29.080Z,6.30
2018-02-12T21:02:55.447Z,5.57
2018-02-12T21:05:21.805Z,5.37
2018-02-12T21:07:48.353Z,5.50
2018-02-12T21:10:14.755Z,4.77
2018-02-12T21:12:41.161Z,4.73
2018-02-12T21:15:07.541Z,4.80
2018-02-12T21:17:34.718Z,5.43
2018-02-12T21:20:01.041Z,5.10
2018-02-12T21:22:27.396Z,4.67
2018-02-12T21:24:53.752Z,4.13
2018-02-12T21:27:21.576Z,4.60
2018-02-12T21:29:47.946Z,5.07
2018-02-12T21:32:14.301Z,5.40
2018-02-12T21:34:41.404Z,4.80
2018-02-12T21:37:07.767Z,4.27
2018-02-12T21:39:34.871Z,5.17
2018-02-12T21:42:01.244Z,4.40
2018-02-12T21:44:28.007Z,4.53
2018-02-12T21:46:54.566Z,4.30
2018-02-12T21:49:20.927Z,4.80
2018-02-12T21:51:47.283Z,4.60
2018-02-12T21:54:14.410Z,4.57
2018-02-12T21:56:40.861Z,4.00
2018-02-12T21:59:07.375Z,4.70
2018-02-12T22:01:33.770Z,4.93
2018-02-12T22:04:00.159Z,5.10
2018-02-12T22:06:27.259Z,5.40
2018-02-12T22:08:53.617Z,5.97
2018-02-12T22:11:19.969Z,5.50
2018-02-12T22:13:46.331Z,5.00
2018-02-12T22:16:12.761Z,5.20
2018-02-12T22:18:39.857Z,5.90
2018-02-12T22:21:06.247Z,5.10
2018-02-12T22:23:32.609Z,4.97
2018-02-12T22:25:58.953Z,4.83
2018-02-12T22:28:25.311Z,5.03
2018-02-12T22:30:53.160Z,5.30
2018-02-12T22:33:19.513Z,5.20
2018-02-12T22:35:46.618Z,5.10
2018-02-12T22:38:12.959Z,4.83
2018-02-12T22:40:39.333Z,4.80
2018-02-12T22:43:06.430Z,5.37
2018-02-12T22:45:32.798Z,5.20
2018-02-12T22:47:59.161Z,5.37
2018-02-12T22:50:25.517Z,4.77
2018-02-12T22:52:51.871Z,4.90
2018-02-12T22:55:18.231Z,6.03
2018-02-12T22:57:44.586Z,6.20
2018-02-12T23:00:11.002Z,5.80
2018-02-12T23:02:38.105Z,6.10
2018-02-12T23:05:04.471Z,6.30
2018-02-12T23:07:30.834Z,5.60
2018-02-12T23:09:57.191Z,5.30
2018-02-12T23:12:23.618Z,6.80
2018-02-12T23:14:50.021Z,5.40
2018-02-12T23:17:19.128Z,6.30
2018-02-12T23:19:45.486Z,5.93
2018-02-12T23:22:11.944Z,5.03
2018-02-12T23:24:38.338Z,5.60
2018-02-12T23:27:04.715Z,5.90
2018-02-12T23:29:31.806Z,6.20
2018-02-12T23:31:58.182Z,6.57
2018-02-12T23:34:25.286Z,6.53
2018-02-12T23:36:51.663Z,7.47
2018-02-12T23:39:18.034Z,6.50
2018-02-12T23:41:45.135Z,6.07
2018-02-12T23:44:11.490Z,7.30
2018-02-12T23:46:38.605Z,7.00
2018-02-12T23:49:04.972Z,6.47
2018-02-12T23:51:31.325Z,6.80
2018-02-12T23:53:57.703Z,7.27
2018-02-12T23:56:24.067Z,6.70
2018-02-12T23:58:51.190Z,7.53
